Aeroporto :
LOGIN :

Iscrizione | Disclaimer

   EN    FR    IT 

 










Sommario :    VFR   VFR Marginale   IFR   IFR Intensivo   IFR Molto Intensivo
Visibilità : 
Base nubi : 
>= 8 km
>= 3000ft
5 / 8 km
1000 / 3000 ft
1500m / 5 km
500 / 1000 ft
800 / 1500m
200 / 500 ft
< 800m
< 200 ft
Simboli :   Temporali  Nebbia  Neve Forte  Precipitazioni Forti  Vento > 20 kt
SIGMETs :   Varie  Temporali  Ghiacco  Turbolenza  Onda orograficha  Ceneri Vulcaniche







- Altitudine del aeroporto : 1768 ft


LEHC - Huesca Pirineos

ULTIMO METAR :
  • 161930Z AUTO 27014KT 9999 NCD 21/12 Q1018

METARs OBSOLETI :
  • 161900Z AUTO 27016KT 240V300 9999 NCD 22/12 Q1018
  • 161830Z AUTO 27018KT 250V310 9999 NCD 23/12 Q1017
  • 161800Z AUTO 27019KT 9999 NCD 24/12 Q1017
  • 161730Z AUTO 27020KT 240V310 9999 NCD 25/12 Q1017
  • 161700Z 27022KT 240V300 CAVOK 25/12 Q1017

TAF TAF LEHC
Valido dal 16 a 09 ore il 17 a 09 ore UTC


160800Z 1609/1709 30020KT 9999 FEW040 TX28/1614Z TN15/1705Z
TEMPO 1609/1610 30020G35KT
PROB30
TEMPO 1611/1615 02020G40KT 3000 TSRA SCT020CB BKN040
TEMPO 1610/1616 30025G43KT
BECMG 1618/1620 VRB03KT
Nessun NOTAM noto per questo aeroporto.



MetMap, La meteo Aeronautica in un colpo d'occhio ! - Copyright ORBIFLY Dicembre 2007 - Disclaimer

ORBIFLY MET'MAP TEAM :

Programmazione e sviluppo : Alexandra Zaïnal
Concezione e sviluppo : Baudouin d'Aumeries
Co-Programmazione e sviluppo : Marc-Olivier Méhu
Supporto tecnico e logistico : Manuel Goepfert
Aiuto per la traduzione : Arnaldo La Scala

Contatto : metmap@orbifly.com




FONTI E CREDITI :

   NOAA